| Time | Avg. Air Temp | Dew Point | Avg. Rel Humidity | Avg. 2 Min Wind Speed | Max Gust Velocity | MGV Time | MGV Direction | Avg. Spot Wind Velocity |
|---|---|---|---|---|---|---|---|---|
| 2026-08-31 11:10:00 | 4° C | 5° C | 100% | 14 km/h | 20 km/h | 11:06:00 | SE | 12 km/h |
| 10:10:00 | 4° C | 4° C | 100% | 10 km/h | 18 km/h | 10:09:00 | E | 9 km/h |
| 09:10:00 | 3° C | 3° C | 100% | 13 km/h | 18 km/h | 09:06:00 | SE | 13 km/h |
| 08:10:00 | 3° C | 3° C | 100% | 17 km/h | 21 km/h | 08:09:00 | S | 16 km/h |
| 07:10:00 | 2° C | 2° C | 100% | 10 km/h | 13 km/h | 07:06:00 | SE | 11 km/h |
| 06:10:00 | 3° C | 2° C | 100% | 3 km/h | 5 km/h | 06:06:00 | E | 3 km/h |
| 05:10:00 | 3° C | 3° C | 100% | 2 km/h | 6 km/h | 05:07:00 | W | 4 km/h |
| 04:10:00 | 3° C | 3° C | 100% | 12 km/h | 15 km/h | 04:06:00 | SW | 12 km/h |
| 03:10:00 | 3° C | 3° C | 100% | 12 km/h | 17 km/h | 03:07:00 | SW | 13 km/h |
| 02:10:00 | 3° C | 3° C | 100% | 17 km/h | 20 km/h | 02:08:00 | SW | 18 km/h |
| 01:10:00 | 3° C | 3° C | 100% | 14 km/h | 16 km/h | 01:08:00 | SW | 14 km/h |
| 00:10:00 | 3° C | 3° C | 100% | 11 km/h | 14 km/h | 00:07:00 | W | 12 km/h |
| 23:10:00 | 3° C | 3° C | 100% | 11 km/h | 13 km/h | 23:10:00 | W | 9 km/h |
| 22:10:00 | 3° C | 3° C | 100% | 7 km/h | 11 km/h | 22:09:00 | W | 8 km/h |
| 21:10:00 | 2° C | 2° C | 100% | 14 km/h | 16 km/h | 21:10:00 | W | 13 km/h |
| 20:10:00 | 3° C | 3° C | 100% | 14 km/h | 18 km/h | 20:07:00 | W | 15 km/h |
| 19:10:00 | 3° C | 3° C | 100% | 9 km/h | 13 km/h | 19:10:00 | W | 9 km/h |
| 18:10:00 | 3° C | 3° C | 100% | 9 km/h | 13 km/h | 18:06:00 | W | 9 km/h |
| 17:10:00 | 2° C | 2° C | 100% | 11 km/h | 16 km/h | 17:09:00 | W | 12 km/h |
| 16:10:00 | 2° C | 2° C | 100% | 9 km/h | 12 km/h | 16:09:00 | SW | 10 km/h |
| 15:10:00 | 2° C | 2° C | 100% | 8 km/h | 14 km/h | 15:06:00 | W | 9 km/h |
| 14:10:00 | 2° C | 2° C | 100% | 11 km/h | 15 km/h | 14:08:00 | W | 10 km/h |
| 13:10:00 | 2° C | 2° C | 100% | 10 km/h | 18 km/h | 13:06:00 | NW | 11 km/h |
| 12:10:00 | 2° C | 2° C | 100% | 14 km/h | 19 km/h | 12:08:00 | W | 14 km/h |
Subpeak Weather
| Time | Avg. Air Temp | Dew Point | Avg. Rel Humidity | Avg. 2 Min Wind Speed | Max Gust Velocity | MGV Time | MGV Direction | Avg. Spot Wind Velocity |
|---|---|---|---|---|---|---|---|---|
| 2026-08-31 11:10:00 | 4° C | 5° C | 100% | 14 km/h | 20 km/h | 11:06:00 | SE | 12 km/h |
| 11:05:00 | 4° C | 4° C | 100% | 16 km/h | 21 km/h | 11:05:00 | SE | 11 km/h |
| 11:00:00 | 4° C | 4° C | 100% | 13 km/h | 16 km/h | 10:59:00 | SE | 12 km/h |
| 10:55:00 | 4° C | 4° C | 100% | 10 km/h | 15 km/h | 10:51:00 | SE | 12 km/h |
| 10:50:00 | 4° C | 4° C | 100% | 13 km/h | 18 km/h | 10:50:00 | SE | 14 km/h |
| 10:45:00 | 4° C | 5° C | 100% | 6 km/h | 13 km/h | 10:45:00 | SE | 8 km/h |
| 10:40:00 | 4° C | 4° C | 100% | 14 km/h | 18 km/h | 10:39:00 | S | 13 km/h |
| 10:35:00 | 4° C | 4° C | 100% | 9 km/h | 17 km/h | 10:32:00 | S | 10 km/h |
| 10:30:00 | 4° C | 4° C | 100% | 9 km/h | 15 km/h | 10:26:00 | S | 9 km/h |
| 10:25:00 | 4° C | 3° C | 100% | 12 km/h | 20 km/h | 10:25:00 | SE | 13 km/h |
| 10:20:00 | 4° C | 4° C | 100% | 9 km/h | 17 km/h | 10:16:00 | S | 12 km/h |
| 10:15:00 | 4° C | 4° C | 100% | 13 km/h | 17 km/h | 10:12:00 | SE | 11 km/h |
| 10:10:00 | 4° C | 4° C | 100% | 10 km/h | 18 km/h | 10:09:00 | E | 9 km/h |




